Terminal Aerodrome Forecast
Issued by NWS

Home | Current Version | Previous Version | Text Only | Print | Product List | Glossary On
Versions: 1 2 3 4 5 6 7 8 9 10 11 12 13 14 15 16 17 18 19 20 21 22 23 24 25 26 27 28 29 30 31 32 33
000
FTUS45 KBOU 291041 AAB
TAFAPA
TAF AMD
KAPA 291041Z 2911/3006 06013KT P6SM FEW220
     FM291900 11008KT P6SM FEW080 SCT150
     FM300100 15008KT P6SM SCT150 SCT220
     FM300500 20008KT P6SM FEW120 SCT200=

USA.gov is the U.S. government's official web portal to all federal, state and local government web resources and services.